sensor_id;sensor_type;location;lat;lon;timestamp;pressure;altitude;pressure_sealevel;temperature;humidity
72285;BME280;60220;53.552;10.092;2024-03-02T00:01:24;100237.56;;;11.44;100.00
72285;BME280;60220;53.552;10.092;2024-03-02T00:03:53;100229.22;;;12.28;100.00
72285;BME280;60220;53.552;10.092;2024-03-02T00:06:20;100234.59;;;11.22;100.00
72285;BME280;60220;53.552;10.092;2024-03-02T00:08:47;100238.34;;;10.73;100.00
72285;BME280;60220;53.552;10.092;2024-03-02T00:11:16;100233.56;;;11.28;100.00
72285;BME280;60220;53.552;10.092;2024-03-02T00:13:47;100232.00;;;11.56;100.00
72285;BME280;60220;53.552;10.092;2024-03-02T00:16:14;100236.47;;;10.78;100.00
72285;BME280;60220;53.552;10.092;2024-03-02T00:18:41;100238.06;;;10.86;100.00
72285;BME280;60220;53.552;10.092;2024-03-02T00:21:11;100237.66;;;10.65;100.00
72285;BME280;60220;53.552;10.092;2024-03-02T00:23:42;100235.47;;;10.43;100.00
72285;BME280;60220;53.552;10.092;2024-03-02T00:26:11;100231.25;;;9.89;100.00
72285;BME280;60220;53.552;10.092;2024-03-02T00:28:39;100224.03;;;10.47;100.00
72285;BME280;60220;53.552;10.092;2024-03-02T00:31:13;100222.84;;;10.20;100.00
72285;BME280;60220;53.552;10.092;2024-03-02T00:33:42;100224.19;;;10.39;100.00
72285;BME280;60220;53.552;10.092;2024-03-02T00:36:10;100225.53;;;10.14;100.00
72285;BME280;60220;53.552;10.092;2024-03-02T00:38:44;100221.56;;;10.41;100.00
72285;BME280;60220;53.552;10.092;2024-03-02T00:41:16;100220.81;;;10.32;100.00
72285;BME280;60220;53.552;10.092;2024-03-02T00:43:47;100216.44;;;10.33;100.00
72285;BME280;60220;53.552;10.092;2024-03-02T00:46:22;100212.03;;;10.35;100.00
72285;BME280;60220;53.552;10.092;2024-03-02T00:48:56;100210.59;;;10.20;100.00
72285;BME280;60220;53.552;10.092;2024-03-02T00:51:27;100220.69;;;9.92;100.00
72285;BME280;60220;53.552;10.092;2024-03-02T00:53:57;100218.78;;;10.47;100.00
72285;BME280;60220;53.552;10.092;2024-03-02T00:56:24;100207.41;;;10.46;100.00
72285;BME280;60220;53.552;10.092;2024-03-02T00:58:51;100222.06;;;10.12;100.00
72285;BME280;60220;53.552;10.092;2024-03-02T01:01:20;100214.78;;;10.29;100.00
72285;BME280;60220;53.552;10.092;2024-03-02T01:03:52;100214.41;;;10.47;100.00
72285;BME280;60220;53.552;10.092;2024-03-02T01:06:19;100214.16;;;9.69;100.00
72285;BME280;60220;53.552;10.092;2024-03-02T01:08:47;100218.97;;;9.91;100.00
72285;BME280;60220;53.552;10.092;2024-03-02T01:11:16;100218.78;;;10.47;100.00
72285;BME280;60220;53.552;10.092;2024-03-02T01:13:43;100221.63;;;9.90;100.00
72285;BME280;60220;53.552;10.092;2024-03-02T01:16:10;100225.28;;;9.81;100.00
72285;BME280;60220;53.552;10.092;2024-03-02T01:18:36;100220.25;;;9.71;100.00
72285;BME280;60220;53.552;10.092;2024-03-02T01:21:05;100215.56;;;9.86;100.00
72285;BME280;60220;53.552;10.092;2024-03-02T01:23:31;100224.69;;;10.13;100.00
72285;BME280;60220;53.552;10.092;2024-03-02T01:26:00;100218.81;;;10.01;100.00
72285;BME280;60220;53.552;10.092;2024-03-02T01:28:27;100222.34;;;10.44;100.00
72285;BME280;60220;53.552;10.092;2024-03-02T01:30:53;100220.66;;;9.96;100.00
72285;BME280;60220;53.552;10.092;2024-03-02T01:33:20;100221.13;;;9.71;100.00
72285;BME280;60220;53.552;10.092;2024-03-02T01:35:47;100215.06;;;10.12;100.00
72285;BME280;60220;53.552;10.092;2024-03-02T01:38:17;100213.25;;;10.19;100.00
72285;BME280;60220;53.552;10.092;2024-03-02T01:40:44;100208.56;;;10.74;100.00
72285;BME280;60220;53.552;10.092;2024-03-02T01:43:11;100199.50;;;10.49;100.00
72285;BME280;60220;53.552;10.092;2024-03-02T01:45:38;100205.50;;;10.54;100.00
72285;BME280;60220;53.552;10.092;2024-03-02T01:48:06;100200.97;;;11.01;100.00
72285;BME280;60220;53.552;10.092;2024-03-02T01:50:33;100197.06;;;11.17;100.00
72285;BME280;60220;53.552;10.092;2024-03-02T01:53:00;100206.41;;;10.92;100.00
72285;BME280;60220;53.552;10.092;2024-03-02T01:55:29;100201.16;;;10.92;100.00
72285;BME280;60220;53.552;10.092;2024-03-02T01:57:59;100202.19;;;11.21;100.00
72285;BME280;60220;53.552;10.092;2024-03-02T02:00:25;100206.16;;;10.64;100.00
72285;BME280;60220;53.552;10.092;2024-03-02T02:02:53;100198.19;;;10.27;100.00
72285;BME280;60220;53.552;10.092;2024-03-02T02:05:19;100210.28;;;10.35;100.00
72285;BME280;60220;53.552;10.092;2024-03-02T02:07:49;100201.34;;;10.00;100.00
72285;BME280;60220;53.552;10.092;2024-03-02T02:10:18;100201.75;;;10.24;100.00
72285;BME280;60220;53.552;10.092;2024-03-02T02:12:46;100206.63;;;9.97;100.00
72285;BME280;60220;53.552;10.092;2024-03-02T02:15:26;100199.44;;;10.08;100.00
72285;BME280;60220;53.552;10.092;2024-03-02T02:17:53;100202.69;;;9.76;100.00
72285;BME280;60220;53.552;10.092;2024-03-02T02:20:20;100205.22;;;9.80;100.00
72285;BME280;60220;53.552;10.092;2024-03-02T02:22:58;100206.75;;;9.41;100.00
72285;BME280;60220;53.552;10.092;2024-03-02T02:25:28;100202.53;;;9.36;100.00
72285;BME280;60220;53.552;10.092;2024-03-02T02:27:55;100194.28;;;9.57;100.00
72285;BME280;60220;53.552;10.092;2024-03-02T02:30:25;100194.63;;;9.37;100.00
72285;BME280;60220;53.552;10.092;2024-03-02T02:32:53;100193.88;;;9.31;100.00
72285;BME280;60220;53.552;10.092;2024-03-02T02:35:20;100183.81;;;9.06;100.00
72285;BME280;60220;53.552;10.092;2024-03-02T02:37:47;100178.44;;;9.13;100.00
72285;BME280;60220;53.552;10.092;2024-03-02T02:40:16;100181.06;;;9.13;100.00
72285;BME280;60220;53.552;10.092;2024-03-02T02:42:44;100181.81;;;9.21;100.00
72285;BME280;60220;53.552;10.092;2024-03-02T02:45:13;100180.88;;;9.25;100.00
72285;BME280;60220;53.552;10.092;2024-03-02T02:47:40;100179.06;;;9.27;100.00
72285;BME280;60220;53.552;10.092;2024-03-02T02:50:08;100171.13;;;9.33;100.00
72285;BME280;60220;53.552;10.092;2024-03-02T02:52:36;100170.50;;;9.19;100.00
72285;BME280;60220;53.552;10.092;2024-03-02T02:55:06;100167.53;;;9.40;100.00
72285;BME280;60220;53.552;10.092;2024-03-02T02:57:35;100162.63;;;9.68;100.00
72285;BME280;60220;53.552;10.092;2024-03-02T03:00:04;100163.59;;;9.62;100.00
72285;BME280;60220;53.552;10.092;2024-03-02T03:02:36;100161.19;;;9.51;100.00
72285;BME280;60220;53.552;10.092;2024-03-02T03:05:03;100159.44;;;9.01;100.00
72285;BME280;60220;53.552;10.092;2024-03-02T03:07:29;100175.66;;;9.22;100.00
72285;BME280;60220;53.552;10.092;2024-03-02T03:09:56;100164.72;;;9.49;100.00
72285;BME280;60220;53.552;10.092;2024-03-02T03:12:22;100166.66;;;9.39;100.00
72285;BME280;60220;53.552;10.092;2024-03-02T03:14:52;100171.72;;;9.50;100.00
72285;BME280;60220;53.552;10.092;2024-03-02T03:17:19;100169.69;;;9.14;100.00
72285;BME280;60220;53.552;10.092;2024-03-02T03:19:47;100167.78;;;9.23;100.00
72285;BME280;60220;53.552;10.092;2024-03-02T03:22:14;100166.28;;;9.08;100.00
72285;BME280;60220;53.552;10.092;2024-03-02T03:24:40;100167.94;;;9.14;100.00
72285;BME280;60220;53.552;10.092;2024-03-02T03:27:07;100172.16;;;9.23;100.00
72285;BME280;60220;53.552;10.092;2024-03-02T03:29:35;100166.28;;;9.08;100.00
72285;BME280;60220;53.552;10.092;2024-03-02T03:32:04;100164.47;;;9.12;100.00
72285;BME280;60220;53.552;10.092;2024-03-02T03:34:32;100166.56;;;9.44;100.00
72285;BME280;60220;53.552;10.092;2024-03-02T03:36:59;100159.34;;;9.57;100.00
72285;BME280;60220;53.552;10.092;2024-03-02T03:39:25;100165.44;;;9.59;100.00
72285;BME280;60220;53.552;10.092;2024-03-02T03:41:52;100169.03;;;9.53;100.00
72285;BME280;60220;53.552;10.092;2024-03-02T03:44:19;100159.63;;;9.87;100.00
72285;BME280;60220;53.552;10.092;2024-03-02T03:46:45;100161.94;;;9.58;100.00
72285;BME280;60220;53.552;10.092;2024-03-02T03:49:13;100169.38;;;9.32;100.00
72285;BME280;60220;53.552;10.092;2024-03-02T03:51:40;100160.38;;;9.48;100.00
72285;BME280;60220;53.552;10.092;2024-03-02T03:54:07;100164.16;;;9.32;100.00
72285;BME280;60220;53.552;10.092;2024-03-02T03:56:33;100161.19;;;9.01;100.00
72285;BME280;60220;53.552;10.092;2024-03-02T03:59:00;100153.84;;;9.23;100.00
72285;BME280;60220;53.552;10.092;2024-03-02T04:01:27;100160.72;;;9.30;100.00
72285;BME280;60220;53.552;10.092;2024-03-02T04:03:53;100151.34;;;9.64;100.00
72285;BME280;60220;53.552;10.092;2024-03-02T04:06:21;100154.19;;;9.97;100.00
72285;BME280;60220;53.552;10.092;2024-03-02T04:08:48;100155.53;;;9.74;100.00
72285;BME280;60220;53.552;10.092;2024-03-02T04:11:14;100155.09;;;9.51;100.00
72285;BME280;60220;53.552;10.092;2024-03-02T04:13:44;100150.25;;;9.27;100.00
72285;BME280;60220;53.552;10.092;2024-03-02T04:16:10;100152.72;;;9.37;100.00
72285;BME280;60220;53.552;10.092;2024-03-02T04:18:37;100146.94;;;9.19;100.00
72285;BME280;60220;53.552;10.092;2024-03-02T04:21:05;100150.19;;;8.81;100.00
72285;BME280;60220;53.552;10.092;2024-03-02T04:23:33;100153.63;;;9.35;100.00
72285;BME280;60220;53.552;10.092;2024-03-02T04:25:59;100144.94;;;9.33;100.00
72285;BME280;60220;53.552;10.092;2024-03-02T04:28:26;100149.47;;;9.23;100.00
72285;BME280;60220;53.552;10.092;2024-03-02T04:30:52;100150.25;;;9.27;100.00
72285;BME280;60220;53.552;10.092;2024-03-02T04:33:19;100149.38;;;9.29;100.00
72285;BME280;60220;53.552;10.092;2024-03-02T04:35:46;100148.84;;;9.58;100.00
72285;BME280;60220;53.552;10.092;2024-03-02T04:38:12;100163.88;;;9.47;100.00
72285;BME280;60220;53.552;10.092;2024-03-02T04:40:43;100153.91;;;9.18;100.00
72285;BME280;60220;53.552;10.092;2024-03-02T04:43:09;100157.00;;;9.41;100.00
72285;BME280;60220;53.552;10.092;2024-03-02T04:45:40;100153.88;;;9.69;100.00
72285;BME280;60220;53.552;10.092;2024-03-02T04:48:07;100160.78;;;9.73;100.00
72285;BME280;60220;53.552;10.092;2024-03-02T04:50:35;100163.78;;;9.99;100.00
72285;BME280;60220;53.552;10.092;2024-03-02T04:53:02;100167.97;;;9.62;100.00
72285;BME280;60220;53.552;10.092;2024-03-02T04:55:29;100169.47;;;9.27;100.00
72285;BME280;60220;53.552;10.092;2024-03-02T04:58:25;100164.25;;;9.75;100.00
72285;BME280;60220;53.552;10.092;2024-03-02T05:00:52;100166.81;;;9.76;100.00
72285;BME280;60220;53.552;10.092;2024-03-02T05:03:18;100161.16;;;9.55;100.00
72285;BME280;60220;53.552;10.092;2024-03-02T05:05:45;100167.19;;;9.57;100.00
72285;BME280;60220;53.552;10.092;2024-03-02T05:08:12;100172.78;;;9.37;100.00
72285;BME280;60220;53.552;10.092;2024-03-02T05:10:38;100171.19;;;9.30;100.00
72285;BME280;60220;53.552;10.092;2024-03-02T05:13:05;100170.53;;;9.66;100.00
72285;BME280;60220;53.552;10.092;2024-03-02T05:15:35;100161.63;;;9.27;100.00
72285;BME280;60220;53.552;10.092;2024-03-02T05:18:02;100177.00;;;8.93;100.00
72285;BME280;60220;53.552;10.092;2024-03-02T05:20:30;100177.00;;;8.93;100.00
72285;BME280;60220;53.552;10.092;2024-03-02T05:22:59;100174.88;;;9.18;100.00
72285;BME280;60220;53.552;10.092;2024-03-02T05:25:26;100166.09;;;8.66;100.00
72285;BME280;60220;53.552;10.092;2024-03-02T05:27:52;100157.63;;;9.06;100.00
72285;BME280;60220;53.552;10.092;2024-03-02T05:30:19;100165.09;;;8.74;100.00
72285;BME280;60220;53.552;10.092;2024-03-02T05:32:47;100157.88;;;8.90;100.00
72285;BME280;60220;53.552;10.092;2024-03-02T05:35:14;100165.72;;;8.91;100.00
72285;BME280;60220;53.552;10.092;2024-03-02T05:37:40;100165.56;;;9.00;100.00
72285;BME280;60220;53.552;10.092;2024-03-02T05:40:08;100171.34;;;8.66;100.00
72285;BME280;60220;53.552;10.092;2024-03-02T05:42:36;100177.97;;;8.88;100.00
72285;BME280;60220;53.552;10.092;2024-03-02T05:45:04;100169.16;;;8.93;100.00
72285;BME280;60220;53.552;10.092;2024-03-02T05:47:31;100170.72;;;9.06;100.00
72285;BME280;60220;53.552;10.092;2024-03-02T05:49:59;100173.13;;;9.19;100.00
72285;BME280;60220;53.552;10.092;2024-03-02T05:52:26;100166.19;;;9.15;100.00
72285;BME280;60220;53.552;10.092;2024-03-02T05:54:53;100158.56;;;9.51;100.00
72285;BME280;60220;53.552;10.092;2024-03-02T05:57:19;100157.03;;;9.40;100.00
72285;BME280;60220;53.552;10.092;2024-03-02T05:59:59;100158.66;;;9.47;100.00
72285;BME280;60220;53.552;10.092;2024-03-02T06:02:26;100159.75;;;9.35;100.00
72285;BME280;60220;53.552;10.092;2024-03-02T06:04:56;100156.53;;;9.67;100.00
72285;BME280;60220;53.552;10.092;2024-03-02T06:07:24;100164.28;;;9.72;100.00
72285;BME280;60220;53.552;10.092;2024-03-02T06:09:52;100173.19;;;10.09;100.00
72285;BME280;60220;53.552;10.092;2024-03-02T06:12:19;100164.78;;;9.92;100.00
72285;BME280;60220;53.552;10.092;2024-03-02T06:14:45;100175.66;;;9.72;100.00
72285;BME280;60220;53.552;10.092;2024-03-02T06:17:12;100172.75;;;9.40;100.00
72285;BME280;60220;53.552;10.092;2024-03-02T06:19:39;100173.34;;;9.56;100.00
72285;BME280;60220;53.552;10.092;2024-03-02T06:22:06;100169.66;;;9.17;100.00
72285;BME280;60220;53.552;10.092;2024-03-02T06:24:37;100172.78;;;9.37;100.00
72285;BME280;60220;53.552;10.092;2024-03-02T06:27:04;100182.69;;;9.70;100.00
72285;BME280;60220;53.552;10.092;2024-03-02T06:29:32;100184.69;;;9.56;100.00
72285;BME280;60220;53.552;10.092;2024-03-02T06:31:59;100185.22;;;9.26;100.00
72285;BME280;60220;53.552;10.092;2024-03-02T06:34:25;100184.28;;;9.28;100.00
72285;BME280;60220;53.552;10.092;2024-03-02T06:36:52;100172.50;;;9.55;100.00
72285;BME280;60220;53.552;10.092;2024-03-02T06:39:19;100172.53;;;9.98;100.00
72285;BME280;60220;53.552;10.092;2024-03-02T06:41:47;100181.22;;;9.54;100.00
72285;BME280;60220;53.552;10.092;2024-03-02T06:44:13;100188.66;;;9.28;100.00
72285;BME280;60220;53.552;10.092;2024-03-02T06:46:40;100183.13;;;8.92;100.00
72285;BME280;60220;53.552;10.092;2024-03-02T06:49:07;100183.66;;;9.16;100.00
72285;BME280;60220;53.552;10.092;2024-03-02T06:51:35;100182.88;;;9.07;100.00
72285;BME280;60220;53.552;10.092;2024-03-02T06:54:01;100184.69;;;9.04;100.00
72285;BME280;60220;53.552;10.092;2024-03-02T06:56:28;100185.78;;;9.43;100.00
72285;BME280;60220;53.552;10.092;2024-03-02T06:58:57;100190.59;;;9.17;100.00
72285;BME280;60220;53.552;10.092;2024-03-02T07:01:26;100184.91;;;9.44;100.00
72285;BME280;60220;53.552;10.092;2024-03-02T07:03:55;100191.84;;;8.93;100.00
72285;BME280;60220;53.552;10.092;2024-03-02T07:06:22;100189.69;;;9.21;100.00
72285;BME280;60220;53.552;10.092;2024-03-02T07:08:48;100176.84;;;9.05;100.00
72285;BME280;60220;53.552;10.092;2024-03-02T07:11:15;100188.81;;;9.19;100.00
72285;BME280;60220;53.552;10.092;2024-03-02T07:13:41;100182.78;;;9.15;100.00
72285;BME280;60220;53.552;10.092;2024-03-02T07:16:09;100182.34;;;9.41;100.00
72285;BME280;60220;53.552;10.092;2024-03-02T07:18:54;100199.41;;;10.11;100.00
72285;BME280;60220;53.552;10.092;2024-03-02T07:21:21;100203.84;;;9.61;100.00
72285;BME280;60220;53.552;10.092;2024-03-02T07:23:48;100193.72;;;9.40;100.00
72285;BME280;60220;53.552;10.092;2024-03-02T07:26:15;100206.03;;;9.82;100.00
72285;BME280;60220;53.552;10.092;2024-03-02T07:28:46;100207.03;;;9.26;100.00
72285;BME280;60220;53.552;10.092;2024-03-02T07:31:17;100208.91;;;9.70;100.00
72285;BME280;60220;53.552;10.092;2024-03-02T07:33:44;100217.84;;;9.57;100.00
72285;BME280;60220;53.552;10.092;2024-03-02T07:36:14;100213.31;;;9.67;100.00
72285;BME280;60220;53.552;10.092;2024-03-02T07:38:43;100221.13;;;9.71;100.00
72285;BME280;60220;53.552;10.092;2024-03-02T07:41:12;100222.38;;;9.49;100.00
72285;BME280;60220;53.552;10.092;2024-03-02T07:43:41;100226.56;;;9.59;100.00
72285;BME280;60220;53.552;10.092;2024-03-02T07:46:08;100224.06;;;9.51;100.00
72285;BME280;60220;53.552;10.092;2024-03-02T07:48:36;100231.38;;;9.83;100.00
72285;BME280;60220;53.552;10.092;2024-03-02T07:51:03;100233.91;;;9.37;100.00
72285;BME280;60220;53.552;10.092;2024-03-02T07:53:30;100220.88;;;9.83;100.00
72285;BME280;60220;53.552;10.092;2024-03-02T07:55:56;100232.03;;;9.45;100.00
72285;BME280;60220;53.552;10.092;2024-03-02T07:58:30;100230.75;;;9.69;100.00
72285;BME280;60220;53.552;10.092;2024-03-02T08:00:57;100228.22;;;9.63;100.00
72285;BME280;60220;53.552;10.092;2024-03-02T08:03:23;100238.72;;;9.63;100.00
72285;BME280;60220;53.552;10.092;2024-03-02T08:05:51;100241.94;;;9.79;100.00
72285;BME280;60220;53.552;10.092;2024-03-02T08:08:18;100243.47;;;9.90;100.00
72285;BME280;60220;53.552;10.092;2024-03-02T08:10:45;100239.63;;;10.10;100.00
72285;BME280;60220;53.552;10.092;2024-03-02T08:13:11;100252.81;;;10.05;100.00
72285;BME280;60220;53.552;10.092;2024-03-02T08:15:39;100251.94;;;10.05;100.00
72285;BME280;60220;53.552;10.092;2024-03-02T08:18:05;100250.53;;;10.34;100.00
72285;BME280;60220;53.552;10.092;2024-03-02T08:20:33;100249.09;;;10.18;100.00
72285;BME280;60220;53.552;10.092;2024-03-02T08:23:01;100256.53;;;9.93;100.00
72285;BME280;60220;53.552;10.092;2024-03-02T08:25:27;100257.47;;;9.89;100.00
72285;BME280;60220;53.552;10.092;2024-03-02T08:27:54;100264.38;;;9.93;100.00
72285;BME280;60220;53.552;10.092;2024-03-02T08:30:20;100261.66;;;10.00;100.00
72285;BME280;60220;53.552;10.092;2024-03-02T08:32:50;100259.13;;;9.43;100.00
72285;BME280;60220;53.552;10.092;2024-03-02T08:35:16;100264.38;;;10.41;100.00
72285;BME280;60220;53.552;10.092;2024-03-02T08:37:43;100259.31;;;10.32;100.00
72285;BME280;60220;53.552;10.092;2024-03-02T08:40:12;100261.59;;;10.03;100.00
72285;BME280;60220;53.552;10.092;2024-03-02T08:42:38;100263.84;;;10.24;100.00
72285;BME280;60220;53.552;10.092;2024-03-02T08:45:07;100269.06;;;9.76;100.00
72285;BME280;60220;53.552;10.092;2024-03-02T08:47:33;100259.63;;;10.15;100.00
72285;BME280;60220;53.552;10.092;2024-03-02T08:50:00;100272.88;;;10.08;100.00
72285;BME280;60220;53.552;10.092;2024-03-02T08:52:27;100261.13;;;10.30;100.00
72285;BME280;60220;53.552;10.092;2024-03-02T08:54:56;100266.09;;;10.42;100.00
72285;BME280;60220;53.552;10.092;2024-03-02T08:57:23;100258.97;;;10.03;100.00
72285;BME280;60220;53.552;10.092;2024-03-02T08:59:50;100266.13;;;9.94;100.00
72285;BME280;60220;53.552;10.092;2024-03-02T09:02:19;100260.91;;;9.91;100.00
72285;BME280;60220;53.552;10.092;2024-03-02T09:04:46;100265.31;;;9.91;100.00
72285;BME280;60220;53.552;10.092;2024-03-02T09:07:13;100267.91;;;10.40;100.00
72285;BME280;60220;53.552;10.092;2024-03-02T09:09:39;100276.19;;;10.19;100.00
72285;BME280;60220;53.552;10.092;2024-03-02T09:12:06;100273.16;;;10.82;100.00
72285;BME280;60220;53.552;10.092;2024-03-02T09:14:35;100268.22;;;10.66;100.00
72285;BME280;60220;53.552;10.092;2024-03-02T09:17:02;100271.13;;;10.53;100.00
72285;BME280;60220;53.552;10.092;2024-03-02T09:19:31;100268.22;;;10.66;100.00
72285;BME280;60220;53.552;10.092;2024-03-02T09:21:57;100272.03;;;10.93;100.00
72285;BME280;60220;53.552;10.092;2024-03-02T09:24:24;100274.31;;;10.68;100.00
72285;BME280;60220;53.552;10.092;2024-03-02T09:26:50;100271.84;;;11.39;100.00
72285;BME280;60220;53.552;10.092;2024-03-02T09:29:17;100275.97;;;11.12;100.00
72285;BME280;60220;53.552;10.092;2024-03-02T09:31:49;100280.25;;;11.16;100.00
72285;BME280;60220;53.552;10.092;2024-03-02T09:34:16;100286.97;;;11.30;100.00
72285;BME280;60220;53.552;10.092;2024-03-02T09:36:43;100284.84;;;11.07;100.00
72285;BME280;60220;53.552;10.092;2024-03-02T09:39:10;100275.50;;;10.95;100.00
72285;BME280;60220;53.552;10.092;2024-03-02T09:41:37;100274.34;;;10.67;100.00
72285;BME280;60220;53.552;10.092;2024-03-02T09:44:06;100284.25;;;10.96;100.00
72285;BME280;60220;53.552;10.092;2024-03-02T09:46:34;100286.91;;;10.93;100.00
72285;BME280;60220;53.552;10.092;2024-03-02T09:49:03;100281.06;;;11.20;100.00
72285;BME280;60220;53.552;10.092;2024-03-02T09:51:32;100281.97;;;11.19;100.00
72285;BME280;60220;53.552;10.092;2024-03-02T09:54:00;100284.78;;;11.10;100.00
72285;BME280;60220;53.552;10.092;2024-03-02T09:56:27;100268.00;;;11.52;100.00
72285;BME280;60220;53.552;10.092;2024-03-02T09:58:54;100268.91;;;11.87;100.00
72285;BME280;60220;53.552;10.092;2024-03-02T10:01:20;100279.53;;;11.84;100.00
72285;BME280;60220;53.552;10.092;2024-03-02T10:03:50;100273.47;;;11.45;100.00
72285;BME280;60220;53.552;10.092;2024-03-02T10:06:22;100266.91;;;11.61;100.00
72285;BME280;60220;53.552;10.092;2024-03-02T10:08:52;100276.41;;;12.02;100.00
72285;BME280;60220;53.552;10.092;2024-03-02T10:11:26;100272.28;;;11.92;100.00
72285;BME280;60220;53.552;10.092;2024-03-02T10:14:04;100276.94;;;11.82;100.00
72285;BME280;60220;53.552;10.092;2024-03-02T10:16:34;100268.78;;;11.93;100.00
72285;BME280;60220;53.552;10.092;2024-03-02T10:19:15;100276.59;;;12.59;100.00
72285;BME280;60220;53.552;10.092;2024-03-02T10:21:46;100278.63;;;12.17;100.00
72285;BME280;60220;53.552;10.092;2024-03-02T10:24:13;100281.41;;;11.79;100.00
72285;BME280;60220;53.552;10.092;2024-03-02T10:26:39;100277.44;;;12.29;100.00
72285;BME280;60220;53.552;10.092;2024-03-02T10:29:07;100279.31;;;12.25;100.00
72285;BME280;60220;53.552;10.092;2024-03-02T10:31:37;100278.94;;;12.70;100.00
72285;BME280;60220;53.552;10.092;2024-03-02T10:34:04;100278.72;;;12.76;100.00
72285;BME280;60220;53.552;10.092;2024-03-02T10:36:31;100273.25;;;12.52;100.00
72285;BME280;60220;53.552;10.092;2024-03-02T10:39:03;100272.03;;;12.35;100.00
72285;BME280;60220;53.552;10.092;2024-03-02T10:41:32;100279.09;;;12.64;100.00
72285;BME280;60220;53.552;10.092;2024-03-02T10:44:03;100271.94;;;12.69;100.00
72285;BME280;60220;53.552;10.092;2024-03-02T10:46:31;100268.53;;;12.34;100.00
72285;BME280;60220;53.552;10.092;2024-03-02T10:48:58;100272.78;;;12.69;100.00
72285;BME280;60220;53.552;10.092;2024-03-02T10:51:25;100270.81;;;12.76;100.00
72285;BME280;60220;53.552;10.092;2024-03-02T10:53:53;100271.69;;;12.76;100.00
72285;BME280;60220;53.552;10.092;2024-03-02T10:56:26;100278.03;;;13.56;100.00
72285;BME280;60220;53.552;10.092;2024-03-02T10:59:02;100273.03;;;13.47;100.00
72285;BME280;60220;53.552;10.092;2024-03-02T11:01:32;100272.03;;;13.51;100.00
72285;BME280;60220;53.552;10.092;2024-03-02T11:04:02;100277.16;;;13.55;100.00
72285;BME280;60220;53.552;10.092;2024-03-02T11:06:30;100270.75;;;13.64;100.00
72285;BME280;60220;53.552;10.092;2024-03-02T11:09:01;100273.22;;;13.68;100.00
72285;BME280;60220;53.552;10.092;2024-03-02T11:11:36;100287.63;;;13.30;100.00
72285;BME280;60220;53.552;10.092;2024-03-02T11:14:06;100283.56;;;13.74;100.00
72285;BME280;60220;53.552;10.092;2024-03-02T11:16:36;100279.75;;;13.57;100.00
72285;BME280;60220;53.552;10.092;2024-03-02T11:19:05;100281.84;;;13.46;100.00
72285;BME280;60220;53.552;10.092;2024-03-02T11:21:33;100286.81;;;13.28;100.00
72285;BME280;60220;53.552;10.092;2024-03-02T11:24:00;100293.19;;;13.21;100.00
72285;BME280;60220;53.552;10.092;2024-03-02T11:26:28;100285.44;;;12.86;100.00
72285;BME280;60220;53.552;10.092;2024-03-02T11:28:58;100291.09;;;13.03;100.00
72285;BME280;60220;53.552;10.092;2024-03-02T11:31:58;100287.13;;;13.46;100.00
72285;BME280;60220;53.552;10.092;2024-03-02T11:34:29;100290.31;;;13.57;100.00
72285;BME280;60220;53.552;10.092;2024-03-02T11:36:56;100284.72;;;13.66;100.00
72285;BME280;60220;53.552;10.092;2024-03-02T11:39:22;100281.66;;;13.79;100.00
72285;BME280;60220;53.552;10.092;2024-03-02T11:41:49;100278.16;;;13.79;100.00
72285;BME280;60220;53.552;10.092;2024-03-02T11:44:17;100286.19;;;14.26;100.00
72285;BME280;60220;53.552;10.092;2024-03-02T11:46:44;100295.88;;;14.00;100.00
72285;BME280;60220;53.552;10.092;2024-03-02T11:49:14;100287.41;;;14.65;100.00
72285;BME280;60220;53.552;10.092;2024-03-02T11:51:50;100292.78;;;14.63;100.00
72285;BME280;60220;53.552;10.092;2024-03-02T11:54:19;100291.66;;;13.95;100.00
72285;BME280;60220;53.552;10.092;2024-03-02T11:56:47;100286.09;;;14.29;100.00
72285;BME280;60220;53.552;10.092;2024-03-02T11:59:14;100297.97;;;13.36;100.00
72285;BME280;60220;53.552;10.092;2024-03-02T12:01:45;100286.94;;;13.52;100.00
72285;BME280;60220;53.552;10.092;2024-03-02T12:04:13;100289.84;;;13.70;100.00
72285;BME280;60220;53.552;10.092;2024-03-02T12:06:39;100292.13;;;13.81;100.00
72285;BME280;60220;53.552;10.092;2024-03-02T12:09:09;100288.91;;;13.45;100.00
72285;BME280;60220;53.552;10.092;2024-03-02T12:11:37;100275.38;;;13.82;100.00
72285;BME280;60220;53.552;10.092;2024-03-02T12:14:04;100288.44;;;13.32;100.00
72285;BME280;60220;53.552;10.092;2024-03-02T12:16:31;100278.72;;;13.61;100.00
72285;BME280;60220;53.552;10.092;2024-03-02T12:18:59;100275.06;;;13.91;100.00
72285;BME280;60220;53.552;10.092;2024-03-02T12:21:26;100277.88;;;13.87;100.00
72285;BME280;60220;53.552;10.092;2024-03-02T12:23:52;100290.59;;;13.48;100.00
72285;BME280;60220;53.552;10.092;2024-03-02T12:26:19;100286.53;;;13.38;100.00
72285;BME280;60220;53.552;10.092;2024-03-02T12:28:46;100281.09;;;13.42;100.00
72285;BME280;60220;53.552;10.092;2024-03-02T12:31:13;100275.69;;;13.73;100.00
72285;BME280;60220;53.552;10.092;2024-03-02T12:33:40;100277.72;;;13.65;100.00
72285;BME280;60220;53.552;10.092;2024-03-02T12:36:10;100272.44;;;13.65;100.00
72285;BME280;60220;53.552;10.092;2024-03-02T12:38:43;100272.34;;;13.68;100.00
72285;BME280;60220;53.552;10.092;2024-03-02T12:41:14;100268.19;;;13.34;100.00